createdAt,value
2022-09-23T00:00:44.608Z,90.12
2022-09-23T00:06:08.373Z,89.81
2022-09-23T00:11:01.305Z,89.50
2022-09-23T00:16:01.232Z,89.60
2022-09-23T00:21:01.156Z,89.81
2022-09-23T00:26:01.090Z,90.57
2022-09-23T00:31:01.042Z,91.29
2022-09-23T00:36:00.946Z,91.19
2022-09-23T00:41:00.878Z,90.88
2022-09-23T00:46:00.862Z,90.47
2022-09-23T00:51:00.733Z,90.88
2022-09-23T00:56:00.755Z,91.80
2022-09-23T01:01:00.696Z,90.47
2022-09-23T01:06:00.565Z,90.98
2022-09-23T01:11:00.502Z,90.67
2022-09-23T01:16:00.401Z,90.78
2022-09-23T01:21:00.344Z,91.29
2022-09-23T01:26:00.311Z,92.36
2022-09-23T01:31:00.281Z,91.95
2022-09-23T01:36:00.151Z,92.77
2022-09-23T01:41:00.077Z,92.57
2022-09-23T01:46:00.023Z,92.57
2022-09-23T01:50:59.973Z,92.05
2022-09-23T01:55:59.867Z,92.57
2022-09-23T02:00:59.914Z,93.08
2022-09-23T02:05:59.779Z,93.23
2022-09-23T02:10:59.721Z,93.43
2022-09-23T02:15:59.602Z,93.33
2022-09-23T02:20:59.548Z,93.74
2022-09-23T02:25:59.519Z,94.09
2022-09-23T02:30:59.380Z,94.40
2022-09-23T02:35:59.357Z,93.99
2022-09-23T02:40:59.279Z,94.36
2022-09-23T02:45:59.291Z,94.67
2022-09-23T02:50:59.175Z,92.92
2022-09-23T02:55:59.067Z,93.95
2022-09-23T03:00:59.055Z,93.74
2022-09-23T03:05:59.001Z,93.74
2022-09-23T03:10:58.885Z,93.23
2022-09-23T03:15:58.804Z,93.43
2022-09-23T03:20:58.737Z,93.06
2022-09-23T03:25:58.657Z,93.99
2022-09-23T03:30:58.608Z,93.68
2022-09-23T03:35:58.546Z,94.85
2022-09-23T03:40:58.474Z,94.76
2022-09-23T03:45:58.429Z,95.89
2022-09-23T03:50:58.345Z,94.34
2022-09-23T03:55:58.294Z,94.45
2022-09-23T04:00:58.314Z,94.34
2022-09-23T04:05:58.158Z,95.42
2022-09-23T04:10:58.074Z,94.70
2022-09-23T04:16:07.094Z,94.59
2022-09-23T04:20:59.959Z,95.31
2022-09-23T04:25:59.935Z,95.31
2022-09-23T04:30:59.868Z,96.70
2022-09-23T04:35:59.778Z,96.24
2022-09-23T04:40:59.703Z,95.52
2022-09-23T04:45:59.626Z,95.83
2022-09-23T04:50:59.564Z,95.42
2022-09-23T04:55:59.512Z,95.67
2022-09-23T05:01:04.361Z,96.49
2022-09-23T05:06:00.394Z,95.98
2022-09-23T05:10:59.272Z,95.15
2022-09-23T05:15:59.319Z,95.87
2022-09-23T05:20:59.177Z,95.98
2022-09-23T05:25:59.091Z,95.05
2022-09-23T05:30:59.077Z,95.98
2022-09-23T05:35:59.023Z,95.56
2022-09-23T05:40:58.935Z,95.05
2022-09-23T05:45:58.850Z,95.21
2022-09-23T05:50:58.767Z,94.53
2022-09-23T05:55:58.905Z,95.36
2022-09-23T06:00:58.630Z,95.00
2022-09-23T06:05:58.557Z,95.52
2022-09-23T06:10:58.493Z,94.96
2022-09-23T06:15:58.549Z,94.76
2022-09-23T06:20:58.429Z,94.76
2022-09-23T06:25:58.306Z,93.27
2022-09-23T06:30:58.274Z,94.05
2022-09-23T06:35:59.858Z,93.95
2022-09-23T06:40:58.105Z,93.39
2022-09-23T06:45:58.029Z,93.55
2022-09-23T06:50:57.965Z,91.12
2022-09-23T06:55:57.923Z,83.66
2022-09-23T07:00:57.969Z,77.82
2022-09-23T07:05:57.814Z,73.36
2022-09-23T07:10:57.695Z,70.86
2022-09-23T07:15:57.686Z,66.97
2022-09-23T07:20:57.562Z,66.06
2022-09-23T07:25:57.482Z,64.18
2022-09-23T07:31:00.711Z,63.31
2022-09-23T07:35:57.348Z,63.28
2022-09-23T07:40:57.313Z,62.44
2022-09-23T07:45:57.255Z,62.14
2022-09-23T07:50:57.141Z,62.24
2022-09-23T07:55:57.075Z,61.25
2022-09-23T08:00:57.022Z,62.98
2022-09-23T08:05:56.941Z,61.37
2022-09-23T08:10:56.868Z,63.73
2022-09-23T08:15:56.928Z,59.37
2022-09-23T08:20:56.793Z,57.52
2022-09-23T08:25:59.221Z,55.99
2022-09-23T08:30:56.720Z,54.20
2022-09-23T08:35:56.596Z,52.49
2022-09-23T08:40:56.484Z,51.27
2022-09-23T08:45:56.439Z,52.69
2022-09-23T08:50:56.374Z,50.92
2022-09-23T08:55:56.275Z,50.70
2022-09-23T09:00:56.218Z,50.45
2022-09-23T09:05:56.137Z,48.78
2022-09-23T09:10:56.081Z,50.92
2022-09-23T09:15:56.045Z,48.93
2022-09-23T09:20:55.943Z,48.30
2022-09-23T09:25:56.016Z,45.20
2022-09-23T09:30:56.026Z,44.28
2022-09-23T09:35:55.721Z,43.11
2022-09-23T09:40:55.767Z,46.19
2022-09-23T09:45:58.050Z,47.95
2022-09-23T09:50:55.607Z,46.36
2022-09-23T09:55:55.410Z,47.80
2022-09-23T10:00:55.384Z,47.67
2022-09-23T10:05:55.267Z,47.60
2022-09-23T10:10:55.228Z,49.69
2022-09-23T10:15:55.142Z,50.49
2022-09-23T10:20:55.065Z,54.69
2022-09-23T10:25:55.009Z,46.27
2022-09-23T10:30:54.984Z,48.67
2022-09-23T10:35:54.851Z,45.21
2022-09-23T10:40:54.889Z,46.50
2022-09-23T10:45:54.769Z,47.20
2022-09-23T10:50:54.688Z,46.98
2022-09-23T10:55:54.636Z,47.33
2022-09-23T11:00:54.578Z,50.27
2022-09-23T11:05:54.480Z,47.89
2022-09-23T11:10:54.415Z,50.45
2022-09-23T11:15:54.338Z,44.85
2022-09-23T11:20:54.277Z,45.10
2022-09-23T11:25:54.229Z,44.61
2022-09-23T11:30:54.199Z,44.99
2022-09-23T11:35:54.114Z,44.27
2022-09-23T11:40:54.079Z,43.29
2022-09-23T11:45:53.992Z,43.05
2022-09-23T11:50:53.911Z,45.71
2022-09-23T11:55:58.000Z,50.46
2022-09-23T12:00:59.849Z,53.12
2022-09-23T12:05:54.802Z,49.91
2022-09-23T12:10:53.656Z,49.32
2022-09-23T12:15:53.555Z,48.40
2022-09-23T12:20:53.483Z,42.25
2022-09-23T12:30:36.584Z,43.38
2022-09-23T12:35:36.499Z,42.85
2022-09-23T12:40:36.473Z,47.27
2022-09-23T12:45:36.415Z,43.57
2022-09-23T12:50:36.266Z,42.32
2022-09-23T12:55:36.422Z,44.20
2022-09-23T13:00:36.167Z,45.94
2022-09-23T13:05:36.076Z,47.56
2022-09-23T13:10:36.026Z,45.14
2022-09-23T13:15:36.035Z,47.61
2022-09-23T13:20:35.857Z,46.24
2022-09-23T13:25:35.813Z,46.18
2022-09-23T13:30:35.749Z,47.31
2022-09-23T13:35:35.654Z,45.98
2022-09-23T13:40:35.663Z,49.99
2022-09-23T13:45:35.589Z,45.88
2022-09-23T13:50:35.479Z,48.89
2022-09-23T13:55:35.401Z,50.71
2022-09-23T14:00:35.362Z,51.01
2022-09-23T14:05:35.318Z,57.43
2022-09-23T14:10:35.225Z,46.61
2022-09-23T14:15:35.131Z,49.91
2022-09-23T14:20:35.070Z,53.12
2022-09-23T14:25:34.993Z,51.21
2022-09-23T14:30:34.906Z,49.43
2022-09-23T14:35:34.905Z,52.17
2022-09-23T14:40:34.878Z,49.08
2022-09-23T14:45:34.758Z,51.29
2022-09-23T14:50:34.672Z,51.89
2022-09-23T14:55:34.610Z,56.21
2022-09-23T15:00:34.551Z,51.92
2022-09-23T15:05:34.469Z,58.37
2022-09-23T15:10:34.375Z,58.80
2022-09-23T15:15:34.335Z,59.70
2022-09-23T15:20:34.241Z,61.01
2022-09-23T15:25:34.217Z,61.41
2022-09-23T15:30:34.136Z,62.62
2022-09-23T15:35:35.004Z,60.31
2022-09-23T15:40:34.098Z,57.92
2022-09-23T15:45:34.013Z,61.74
2022-09-23T15:50:33.872Z,65.06
2022-09-23T15:55:33.855Z,67.81
2022-09-23T16:00:33.812Z,68.75
2022-09-23T16:05:33.682Z,71.94
2022-09-23T16:10:34.214Z,72.78
2022-09-23T16:15:33.558Z,75.10
2022-09-23T16:20:33.474Z,76.75
2022-09-23T16:25:33.411Z,77.79
2022-09-23T16:30:33.340Z,76.72
2022-09-23T16:35:33.287Z,77.26
2022-09-23T16:40:33.267Z,78.91
2022-09-23T16:45:33.174Z,79.25
2022-09-23T16:50:33.042Z,79.19
2022-09-23T16:55:33.007Z,79.79
2022-09-23T17:00:32.992Z,79.73
2022-09-23T17:05:33.006Z,80.34
2022-09-23T17:10:32.895Z,80.88
2022-09-23T17:15:32.956Z,78.19
2022-09-23T17:20:32.644Z,78.12
2022-09-23T17:25:32.607Z,78.02
2022-09-23T17:30:32.522Z,76.80
2022-09-23T17:35:32.465Z,75.01
2022-09-23T17:40:32.446Z,73.39
2022-09-23T17:45:32.422Z,73.70
2022-09-23T17:50:32.364Z,76.64
2022-09-23T17:55:32.257Z,75.56
2022-09-23T18:00:32.192Z,76.98
2022-09-23T18:05:32.076Z,77.69
2022-09-23T18:10:32.012Z,77.42
2022-09-23T18:15:32.043Z,78.03
2022-09-23T18:20:31.831Z,79.04
2022-09-23T18:25:39.955Z,79.79
2022-09-23T18:30:32.718Z,79.59
2022-09-23T18:35:31.771Z,80.40
2022-09-23T18:40:31.665Z,79.90
2022-09-23T18:45:31.566Z,81.86
2022-09-23T18:50:31.482Z,81.76
2022-09-23T18:55:31.410Z,82.37
2022-09-23T19:00:31.421Z,84.13
2022-09-23T19:05:31.254Z,84.44
2022-09-23T19:10:31.158Z,84.78
2022-09-23T19:15:31.136Z,84.68
2022-09-23T19:20:31.013Z,85.43
2022-09-23T19:25:30.978Z,84.72
2022-09-23T19:30:30.906Z,83.74
2022-09-23T19:35:31.036Z,82.12
2022-09-23T19:40:30.792Z,81.30
2022-09-23T19:45:30.711Z,80.55
2022-09-23T19:50:30.642Z,81.26
2022-09-23T19:55:30.637Z,82.79
2022-09-23T20:00:30.585Z,83.34
2022-09-23T20:05:30.457Z,83.64
2022-09-23T20:10:30.338Z,85.06
2022-09-23T20:15:30.304Z,84.80
2022-09-23T20:20:30.305Z,83.98
2022-09-23T20:25:30.219Z,85.61
2022-09-23T20:30:30.080Z,86.37
2022-09-23T20:35:30.022Z,87.12
2022-09-23T20:40:30.017Z,86.30
2022-09-23T20:45:29.882Z,86.61
2022-09-23T20:50:29.815Z,87.12
2022-09-23T20:55:29.783Z,87.37
2022-09-23T21:00:29.742Z,87.67
2022-09-23T21:05:29.623Z,87.98
2022-09-23T21:10:29.557Z,88.32
2022-09-23T21:15:29.520Z,87.88
2022-09-23T21:20:29.434Z,88.12
2022-09-23T21:25:30.348Z,88.93
2022-09-23T21:30:29.307Z,89.14
2022-09-23T21:35:29.221Z,89.45
2022-09-23T21:40:29.201Z,88.93
2022-09-23T21:45:29.101Z,89.45
2022-09-23T21:50:29.010Z,89.34
2022-09-23T21:55:28.975Z,88.63
2022-09-23T22:00:28.935Z,88.73
2022-09-23T22:05:28.795Z,88.43
2022-09-23T22:10:28.762Z,88.18
2022-09-23T22:15:28.699Z,87.77
2022-09-23T22:20:28.609Z,88.28
2022-09-23T22:25:28.509Z,88.39
2022-09-23T22:30:28.516Z,89.34
2022-09-23T22:35:28.410Z,89.86
2022-09-23T22:40:28.385Z,90.36
2022-09-23T22:45:28.254Z,90.81
2022-09-23T22:50:28.184Z,91.43
2022-09-23T22:55:28.155Z,91.47
2022-09-23T23:00:28.073Z,90.92
2022-09-23T23:05:28.005Z,90.71
2022-09-23T23:10:27.943Z,90.92
2022-09-23T23:15:28.390Z,90.86
2022-09-23T23:20:28.066Z,91.47
2022-09-23T23:25:27.752Z,91.82
2022-09-23T23:30:27.676Z,92.02
2022-09-23T23:35:28.101Z,91.92
2022-09-23T23:40:27.585Z,91.86
2022-09-23T23:45:27.469Z,92.58
2022-09-23T23:50:27.395Z,92.58
2022-09-23T23:55:27.340Z,92.58
